Huron, Indiana
Current Conditions -  °F | °C
As of 7:15 AM on Friday 19 Dec 2014 (Local Time) from KDCY Reporting Station
Scattered Clouds Scattered Clouds  
Wind Chill: 18°   Ceiling: Unl
Heat Index: 25°   Visibility: 7mi
Dew Point: 22°   Wind: 6mph
Humidity: 87%   Direction: 360°N
Pressure: 30.29"   Gusts: NA
Location:  38.72°N, 86.67°W
Report Text: KDCY 191215Z AUTO 36005KT 7SM SCT014 M04/M06 A3029 RMK AO2 T10381057
Loading
Personal Weather Stations






























Interactive Weather Map New forecast layout! Learn more

10-Day Weather Forecast

Advertisements
Track Severe Weather on mobile